Time;durP1;ratioP1;P1;durP2;ratioP2;P2;SDS_P1;SDS_P2;PMS_P1;PMS_P2;Temp;Humidity;BMP_temperature;BMP_pressure;BME280_temperature;BME280_humidity;BME280_pressure;Samples;Min_cycle;Max_cycle;Signal;HPM_P1;HPM_P2
2023/07/21 00:00:19;;;;;;;2.37;1.20;;;16.30;99.90;;;;;;4233772;28;20303;-77
2023/07/21 00:02:20;;;;;;;1.30;0.97;;;16.30;99.90;;;;;;4237249;27;20199;-77
2023/07/21 00:04:24;;;;;;;2.60;1.23;;;16.30;99.90;;;;;;4238309;27;20197;-77
2023/07/21 00:06:26;;;;;;;2.00;1.17;;;16.30;99.90;;;;;;4232930;27;20247;-77
2023/07/21 00:08:29;;;;;;;1.03;0.90;;;16.30;99.90;;;;;;4240031;27;20289;-77
2023/07/21 00:10:30;;;;;;;1.70;1.00;;;16.30;99.90;;;;;;4244238;27;20203;-77
2023/07/21 00:12:34;;;;;;;1.20;1.00;;;16.30;99.90;;;;;;4241125;27;20231;-78
2023/07/21 00:14:36;;;;;;;3.73;1.20;;;16.20;99.90;;;;;;4240062;27;20600;-77
2023/07/21 00:16:38;;;;;;;2.67;1.20;;;16.20;99.90;;;;;;4238334;27;20758;-77
2023/07/21 00:18:41;;;;;;;2.23;1.20;;;16.20;99.90;;;;;;4241270;27;20216;-77
2023/07/21 00:20:43;;;;;;;2.20;1.30;;;16.10;99.90;;;;;;4236625;27;20213;-78
2023/07/21 00:22:45;;;;;;;1.17;0.90;;;16.10;99.90;;;;;;4238322;27;20216;-77
2023/07/21 00:24:46;;;;;;;2.70;1.13;;;16.10;99.90;;;;;;4245189;27;20206;-77
2023/07/21 00:26:48;;;;;;;2.97;1.20;;;16.00;99.90;;;;;;4244251;27;20211;-78
2023/07/21 00:28:51;;;;;;;1.77;1.00;;;16.00;99.90;;;;;;4239906;27;20302;-77
2023/07/21 00:30:53;;;;;;;1.57;1.07;;;16.00;99.90;;;;;;4244032;27;20291;-77
2023/07/21 00:32:55;;;;;;;1.20;1.00;;;16.00;99.90;;;;;;4244625;27;20828;-78
2023/07/21 00:34:57;;;;;;;2.60;1.20;;;15.90;99.90;;;;;;4236382;27;20192;-78
2023/07/21 00:36:59;;;;;;;1.77;1.30;;;15.90;99.90;;;;;;4238153;27;20234;-77
2023/07/21 00:39:03;;;;;;;2.70;1.00;;;15.90;99.90;;;;;;4235140;27;20208;-77
2023/07/21 00:41:05;;;;;;;1.60;1.00;;;15.90;99.90;;;;;;4238740;27;20218;-78
2023/07/21 00:43:08;;;;;;;1.50;1.07;;;15.90;99.90;;;;;;4242485;27;20206;-77
2023/07/21 00:45:14;;;;;;;1.77;1.27;;;15.80;99.90;;;;;;4242547;27;20207;-77
2023/07/21 00:47:16;;;;;;;3.63;1.13;;;15.80;99.90;;;;;;4245457;27;20881;-77
2023/07/21 00:49:18;;;;;;;2.20;1.03;;;15.80;99.90;;;;;;4237333;27;20208;-78
2023/07/21 00:51:22;;;;;;;1.87;1.20;;;15.80;99.90;;;;;;4244004;27;20200;-77
2023/07/21 00:53:26;;;;;;;2.97;1.00;;;15.70;99.90;;;;;;4240217;27;20200;-76
2023/07/21 00:55:28;;;;;;;1.23;1.10;;;15.70;99.90;;;;;;4241134;27;20272;-77
2023/07/21 00:57:31;;;;;;;2.23;1.10;;;15.70;99.90;;;;;;4241084;27;20252;-78
2023/07/21 00:59:33;;;;;;;1.53;1.17;;;15.70;99.90;;;;;;4235323;27;20206;-77
2023/07/21 01:01:36;;;;;;;2.67;1.47;;;15.70;99.90;;;;;;4237858;27;20251;-77
2023/07/21 01:03:39;;;;;;;1.83;1.10;;;15.60;99.90;;;;;;4239867;27;20208;-77
2023/07/21 01:05:46;;;;;;;1.10;0.90;;;15.60;99.90;;;;;;4238677;27;20348;-77
2023/07/21 01:07:50;;;;;;;1.60;1.30;;;15.60;99.90;;;;;;4241161;27;20212;-77
2023/07/21 01:09:53;;;;;;;3.17;1.20;;;15.50;99.90;;;;;;4243023;27;20203;-78
2023/07/21 01:11:56;;;;;;;2.40;1.30;;;15.50;99.90;;;;;;4246683;27;20238;-79
2023/07/21 01:14:00;;;;;;;2.57;1.23;;;15.50;99.90;;;;;;4237796;27;20295;-78
2023/07/21 01:16:04;;;;;;;2.50;1.60;;;15.50;99.90;;;;;;4268772;22;20274;-78
2023/07/21 01:18:09;;;;;;;1.63;1.13;;;15.50;99.90;;;;;;4261487;27;20266;-80
2023/07/21 01:20:15;;;;;;;2.00;1.50;;;15.40;99.90;;;;;;4258633;27;20255;-79
2023/07/21 01:22:23;;;;;;;2.13;1.30;;;15.40;99.90;;;;;;4255711;27;20202;-80
2023/07/21 01:24:32;;;;;;;1.80;1.27;;;15.40;99.90;;;;;;4256545;27;20210;-81
2023/07/21 01:26:39;;;;;;;1.60;1.23;;;15.30;99.90;;;;;;4254597;27;20254;-80
2023/07/21 01:28:42;;;;;;;3.00;1.30;;;15.30;99.90;;;;;;4249889;27;20233;-81
2023/07/21 01:30:45;;;;;;;2.80;1.30;;;15.30;99.90;;;;;;4249771;27;20203;-80
2023/07/21 01:32:48;;;;;;;2.93;1.27;;;15.30;99.90;;;;;;4251334;27;20214;-79
2023/07/21 01:34:51;;;;;;;1.93;1.30;;;15.20;99.90;;;;;;4249341;27;20297;-80
2023/07/21 01:36:53;;;;;;;2.97;1.20;;;15.20;99.90;;;;;;4247009;27;20318;-79
2023/07/21 01:38:56;;;;;;;2.30;1.40;;;15.20;99.90;;;;;;4253122;27;20203;-80
2023/07/21 01:40:59;;;;;;;1.73;1.20;;;15.20;99.90;;;;;;4252113;27;20935;-79
2023/07/21 01:43:03;;;;;;;1.90;1.40;;;15.20;99.90;;;;;;4255287;27;20218;-79
2023/07/21 01:45:07;;;;;;;1.67;1.33;;;15.10;99.90;;;;;;4245980;27;20315;-79
2023/07/21 01:47:09;;;;;;;2.30;1.13;;;15.10;99.90;;;;;;4247419;27;20234;-81
2023/07/21 01:49:11;;;;;;;1.53;1.33;;;15.10;99.90;;;;;;4248743;27;20211;-78
2023/07/21 01:51:15;;;;;;;2.53;1.67;;;15.10;99.90;;;;;;4254859;27;20256;-80
2023/07/21 01:53:23;;;;;;;1.87;1.53;;;15.10;99.90;;;;;;4250027;27;20234;-79
2023/07/21 01:55:31;;;;;;;2.23;1.53;;;15.10;99.90;;;;;;4248883;27;20265;-79
2023/07/21 01:57:38;;;;;;;1.87;1.30;;;15.00;99.90;;;;;;4250411;27;20230;-80
2023/07/21 01:59:46;;;;;;;2.53;1.40;;;15.00;99.90;;;;;;4247099;27;20205;-78
2023/07/21 02:01:49;;;;;;;3.00;1.70;;;15.00;99.90;;;;;;4252363;27;20245;-81
2023/07/21 02:03:51;;;;;;;3.30;1.90;;;15.00;99.90;;;;;;4249782;27;20211;-79
2023/07/21 02:05:53;;;;;;;2.33;1.40;;;15.00;99.90;;;;;;4254114;27;20214;-77
2023/07/21 02:07:56;;;;;;;6.03;1.50;;;15.00;99.90;;;;;;4258187;27;20242;-80
2023/07/21 02:09:57;;;;;;;3.23;1.77;;;14.90;99.90;;;;;;4254215;27;20220;-80
2023/07/21 02:12:00;;;;;;;1.73;1.40;;;14.90;99.90;;;;;;4251664;27;20213;-81
2023/07/21 02:14:01;;;;;;;1.83;1.53;;;14.90;99.90;;;;;;4250192;27;20554;-78
2023/07/21 02:16:05;;;;;;;1.83;1.40;;;14.90;99.90;;;;;;4253154;27;20272;-79
2023/07/21 02:18:07;;;;;;;2.50;1.73;;;14.90;99.90;;;;;;4249363;27;20240;-80
2023/07/21 02:20:09;;;;;;;1.73;1.57;;;14.90;99.90;;;;;;4255084;27;20280;-78
2023/07/21 02:22:12;;;;;;;1.73;1.40;;;14.90;99.90;;;;;;4252550;27;20241;-82
2023/07/21 02:24:14;;;;;;;2.27;1.50;;;14.90;99.90;;;;;;4250967;27;20209;-80
2023/07/21 02:26:16;;;;;;;2.33;1.50;;;14.80;99.90;;;;;;4255484;27;20225;-80
2023/07/21 02:28:18;;;;;;;2.13;1.40;;;14.90;99.90;;;;;;4248008;27;20302;-79
2023/07/21 02:30:20;;;;;;;1.80;1.37;;;14.80;99.90;;;;;;4245121;27;20204;-79
2023/07/21 02:32:23;;;;;;;3.77;1.77;;;14.80;99.90;;;;;;4246892;27;20218;-77
2023/07/21 02:34:25;;;;;;;2.30;1.57;;;14.80;99.90;;;;;;4251521;27;20213;-80
2023/07/21 02:36:27;;;;;;;1.90;1.43;;;14.80;99.90;;;;;;4250683;27;20266;-79
2023/07/21 02:38:30;;;;;;;3.20;1.60;;;14.80;99.90;;;;;;4244834;27;20301;-80
2023/07/21 02:40:32;;;;;;;3.33;1.43;;;14.80;99.90;;;;;;4249585;27;20206;-81
2023/07/21 02:42:35;;;;;;;2.43;1.50;;;14.70;99.90;;;;;;4254874;27;20973;-81
2023/07/21 02:44:37;;;;;;;2.03;1.57;;;14.70;99.90;;;;;;4246761;27;20226;-79
2023/07/21 02:46:39;;;;;;;2.33;1.80;;;14.70;99.90;;;;;;4253819;27;20229;-80
2023/07/21 02:48:43;;;;;;;2.10;1.90;;;14.70;99.90;;;;;;4256253;27;20204;-79
2023/07/21 02:50:48;;;;;;;1.77;1.50;;;14.70;99.90;;;;;;4247235;27;20205;-79
2023/07/21 02:52:50;;;;;;;3.13;1.70;;;14.70;99.90;;;;;;4254206;27;20724;-80
2023/07/21 02:54:51;;;;;;;3.07;1.90;;;14.80;99.90;;;;;;4258383;27;20210;-80
2023/07/21 02:56:53;;;;;;;1.93;1.70;;;14.70;99.90;;;;;;4258888;27;20282;-78
2023/07/21 02:58:54;;;;;;;2.47;1.80;;;14.70;99.90;;;;;;4261309;27;20225;-78
2023/07/21 03:00:57;;;;;;;1.80;1.63;;;14.70;99.90;;;;;;4261276;27;20623;-79
2023/07/21 03:02:58;;;;;;;2.90;1.97;;;14.70;99.90;;;;;;4259856;27;20210;-79
2023/07/21 03:05:04;;;;;;;2.17;1.70;;;14.70;99.90;;;;;;4256358;27;20215;-79
2023/07/21 03:07:07;;;;;;;2.77;1.90;;;14.70;99.90;;;;;;4250678;27;20230;-77
2023/07/21 03:09:09;;;;;;;3.50;1.93;;;14.60;99.90;;;;;;4257822;27;20233;-77
2023/07/21 03:11:13;;;;;;;2.30;1.70;;;14.70;99.90;;;;;;4255700;27;20219;-77
2023/07/21 03:13:15;;;;;;;2.13;1.80;;;14.60;99.90;;;;;;4258140;27;20306;-79
2023/07/21 03:15:17;;;;;;;3.33;2.10;;;14.70;99.90;;;;;;4252655;27;20223;-80
2023/07/21 03:17:18;;;;;;;2.50;1.87;;;14.70;99.90;;;;;;4250766;27;20319;-79
2023/07/21 03:19:20;;;;;;;3.30;1.63;;;14.70;99.90;;;;;;4251161;27;20196;-79
2023/07/21 03:21:24;;;;;;;2.63;1.80;;;14.70;99.90;;;;;;4250264;27;20235;-77
2023/07/21 03:23:26;;;;;;;1.63;1.53;;;14.70;99.90;;;;;;4251092;27;20669;-78
2023/07/21 03:25:28;;;;;;;2.03;1.73;;;14.70;99.90;;;;;;4259917;27;20198;-79
2023/07/21 03:27:30;;;;;;;5.30;2.47;;;14.80;99.90;;;;;;4249302;27;20401;-79
2023/07/21 03:29:32;;;;;;;3.47;1.83;;;14.80;99.90;;;;;;4256928;27;20235;-77
2023/07/21 03:31:34;;;;;;;3.13;2.10;;;14.80;99.90;;;;;;4256641;27;20213;-79
2023/07/21 03:33:36;;;;;;;3.43;1.83;;;14.90;99.90;;;;;;4258424;27;20617;-79
2023/07/21 03:35:38;;;;;;;2.00;1.80;;;14.90;99.90;;;;;;4261950;27;20211;-78
2023/07/21 03:37:41;;;;;;;2.10;1.87;;;14.90;99.90;;;;;;4263770;27;20227;-77
2023/07/21 03:39:45;;;;;;;2.67;2.00;;;14.90;99.90;;;;;;4262104;27;20211;-76
2023/07/21 03:41:46;;;;;;;2.30;2.00;;;14.90;99.90;;;;;;4266125;27;20203;-79
2023/07/21 03:43:48;;;;;;;2.27;1.77;;;14.90;99.90;;;;;;4263108;27;20274;-77
2023/07/21 03:45:57;;;;;;;2.30;2.10;;;14.90;99.90;;;;;;4263849;27;20330;-76
2023/07/21 03:48:00;;;;;;;2.27;1.83;;;15.00;99.90;;;;;;4262221;27;20220;-78
2023/07/21 03:50:02;;;;;;;2.73;2.07;;;14.90;99.90;;;;;;4260667;27;20221;-77
2023/07/21 03:52:04;;;;;;;2.53;1.97;;;15.00;99.90;;;;;;4259945;27;20221;-75
2023/07/21 03:54:08;;;;;;;2.73;2.03;;;15.00;99.90;;;;;;4258740;27;20207;-77
2023/07/21 03:56:09;;;;;;;3.13;2.30;;;15.10;99.90;;;;;;4258585;27;20648;-77
2023/07/21 03:58:11;;;;;;;2.17;1.97;;;15.00;99.90;;;;;;4257014;27;20290;-78
2023/07/21 04:00:14;;;;;;;3.03;2.30;;;15.00;99.90;;;;;;4258830;27;20209;-81
2023/07/21 04:02:17;;;;;;;2.97;2.07;;;15.10;99.90;;;;;;4254630;27;20235;-77
2023/07/21 04:04:19;;;;;;;4.20;2.47;;;15.10;99.90;;;;;;4251242;27;20223;-80
2023/07/21 04:06:24;;;;;;;3.53;2.20;;;15.20;99.90;;;;;;4254091;27;20226;-78
2023/07/21 04:08:26;;;;;;;2.40;2.17;;;15.20;99.90;;;;;;4256143;27;20218;-80
2023/07/21 04:10:29;;;;;;;3.03;2.27;;;15.20;99.90;;;;;;4250500;27;20213;-79
2023/07/21 04:12:31;;;;;;;3.50;2.63;;;15.20;99.90;;;;;;4251376;27;20557;-80
2023/07/21 04:14:34;;;;;;;3.90;2.57;;;15.20;99.90;;;;;;4256204;27;20210;-79
2023/07/21 04:16:35;;;;;;;3.73;2.60;;;15.30;99.90;;;;;;4251381;27;20271;-78
2023/07/21 04:18:38;;;;;;;3.73;2.40;;;15.30;99.90;;;;;;4252638;27;20206;-78
2023/07/21 04:20:40;;;;;;;3.57;2.73;;;15.30;99.90;;;;;;4254578;27;20219;-79
2023/07/21 04:22:42;;;;;;;3.97;2.87;;;15.40;99.90;;;;;;4251350;27;20544;-79
2023/07/21 04:24:45;;;;;;;3.27;2.67;;;15.40;99.90;;;;;;4258925;27;20226;-79
2023/07/21 04:26:48;;;;;;;4.60;3.20;;;15.40;99.90;;;;;;4259131;27;20223;-77
2023/07/21 04:28:50;;;;;;;6.60;3.50;;;15.40;99.90;;;;;;4257286;27;20209;-79
2023/07/21 04:30:54;;;;;;;3.40;2.80;;;15.50;99.90;;;;;;4260222;27;20786;-79
2023/07/21 04:32:57;;;;;;;3.63;2.87;;;15.50;99.90;;;;;;4258705;27;20214;-81
2023/07/21 04:34:59;;;;;;;5.87;3.80;;;15.50;99.90;;;;;;4264090;27;20569;-80
2023/07/21 04:37:02;;;;;;;3.97;3.23;;;15.50;99.90;;;;;;4262592;27;20259;-79
2023/07/21 04:39:04;;;;;;;4.83;3.20;;;15.50;99.90;;;;;;4266540;27;20275;-78
2023/07/21 04:41:06;;;;;;;3.90;3.50;;;15.50;99.90;;;;;;4266547;27;20288;-76
2023/07/21 04:43:09;;;;;;;3.67;3.23;;;15.50;99.90;;;;;;4274036;27;20192;-77
2023/07/21 04:45:12;;;;;;;5.10;3.27;;;15.50;99.90;;;;;;4266831;27;20195;-80
2023/07/21 04:47:14;;;;;;;4.63;3.60;;;15.50;99.90;;;;;;4262950;27;20236;-77
2023/07/21 04:49:17;;;;;;;4.97;3.23;;;15.60;99.90;;;;;;4263666;27;20203;-78
2023/07/21 04:51:18;;;;;;;4.80;3.80;;;15.60;99.90;;;;;;4250380;27;20216;-79
2023/07/21 04:53:21;;;;;;;4.13;3.30;;;15.60;99.90;;;;;;4255077;27;20551;-80
2023/07/21 04:55:23;;;;;;;4.43;3.53;;;15.60;99.90;;;;;;4254718;27;20211;-79
2023/07/21 04:57:26;;;;;;;7.27;5.27;;;15.60;99.90;;;;;;4255905;27;20227;-78
2023/07/21 04:59:29;;;;;;;7.17;5.13;;;15.60;99.90;;;;;;4255050;27;20231;-78
2023/07/21 05:01:32;;;;;;;5.30;4.10;;;15.70;99.90;;;;;;4248597;27;20245;-80
2023/07/21 05:03:34;;;;;;;6.30;3.80;;;15.70;99.90;;;;;;4254720;27;20686;-81
2023/07/21 05:05:36;;;;;;;5.47;3.67;;;15.70;99.90;;;;;;4252365;27;20235;-79
2023/07/21 05:07:38;;;;;;;4.73;3.50;;;15.70;99.90;;;;;;4250430;27;20274;-80
2023/07/21 05:09:40;;;;;;;5.37;3.33;;;15.70;99.90;;;;;;4251239;27;20204;-79
2023/07/21 05:11:42;;;;;;;4.50;3.27;;;15.70;99.90;;;;;;4251179;27;20224;-80
2023/07/21 05:13:45;;;;;;;5.23;3.37;;;15.70;99.90;;;;;;4251002;27;20260;-78
2023/07/21 05:15:49;;;;;;;4.27;2.73;;;15.70;99.90;;;;;;4250137;27;20210;-78
2023/07/21 05:17:51;;;;;;;6.37;3.27;;;15.70;99.90;;;;;;4249038;27;20230;-79
2023/07/21 05:19:53;;;;;;;4.27;3.03;;;15.70;99.90;;;;;;4248141;27;20607;-81
2023/07/21 05:21:55;;;;;;;6.00;4.47;;;15.70;99.90;;;;;;4251974;27;20224;-77
2023/07/21 05:23:57;;;;;;;6.00;4.30;;;15.80;99.90;;;;;;4251703;27;20231;-81
2023/07/21 05:26:00;;;;;;;5.43;3.90;;;15.80;99.90;;;;;;4251451;27;20284;-81
2023/07/21 05:28:02;;;;;;;4.03;3.20;;;15.80;99.90;;;;;;4251403;27;20294;-80
2023/07/21 05:30:05;;;;;;;5.50;3.63;;;15.80;99.90;;;;;;4250467;27;20254;-79
2023/07/21 05:32:08;;;;;;;3.27;2.87;;;15.80;99.90;;;;;;4252781;27;20301;-79
2023/07/21 05:34:10;;;;;;;4.30;3.17;;;15.90;99.90;;;;;;4253896;27;20204;-79
2023/07/21 05:36:12;;;;;;;3.67;3.03;;;15.90;99.90;;;;;;4249947;27;20224;-80
2023/07/21 05:38:14;;;;;;;3.20;2.77;;;15.90;99.90;;;;;;4248714;27;20284;-79
2023/07/21 05:40:16;;;;;;;3.40;2.93;;;15.90;99.90;;;;;;4252018;27;20214;-79
2023/07/21 05:42:18;;;;;;;5.07;3.73;;;16.00;99.90;;;;;;4251632;27;20207;-79
2023/07/21 05:44:20;;;;;;;4.83;3.80;;;16.00;99.90;;;;;;4246781;27;20818;-80
2023/07/21 05:46:22;;;;;;;4.03;3.20;;;16.10;99.90;;;;;;4253980;27;20257;-80
2023/07/21 05:48:25;;;;;;;4.60;3.43;;;16.10;99.90;;;;;;4255146;27;20208;-81
2023/07/21 05:50:27;;;;;;;3.77;2.63;;;16.20;99.90;;;;;;4255994;27;20204;-80
2023/07/21 05:52:29;;;;;;;3.97;2.67;;;16.30;99.90;;;;;;4259429;27;20216;-79
2023/07/21 05:54:31;;;;;;;4.90;3.20;;;16.40;99.90;;;;;;4253955;27;20231;-80
2023/07/21 05:56:32;;;;;;;3.67;3.00;;;16.50;99.90;;;;;;4251648;27;20253;-80
2023/07/21 05:58:35;;;;;;;3.90;2.70;;;16.60;99.90;;;;;;4250317;27;20217;-80
2023/07/21 06:00:38;;;;;;;3.77;2.90;;;16.70;99.90;;;;;;4246211;27;20665;-80
2023/07/21 06:02:40;;;;;;;4.23;2.53;;;16.70;99.90;;;;;;4243481;27;20204;-77
2023/07/21 06:04:44;;;;;;;2.70;2.50;;;16.80;99.90;;;;;;4249770;27;20208;-77
2023/07/21 06:06:46;;;;;;;2.90;2.43;;;16.80;99.90;;;;;;4247052;27;20232;-77
2023/07/21 06:08:48;;;;;;;4.13;2.97;;;16.90;99.90;;;;;;4248342;27;20203;-79
2023/07/21 06:10:50;;;;;;;5.27;3.27;;;16.90;99.90;;;;;;4252954;27;20208;-78
2023/07/21 06:12:52;;;;;;;7.37;4.20;;;16.90;99.90;;;;;;4246353;27;20235;-82
2023/07/21 06:14:54;;;;;;;3.50;3.13;;;17.00;99.90;;;;;;4249911;27;20253;-80
2023/07/21 06:16:56;;;;;;;4.60;3.50;;;17.10;99.90;;;;;;4242675;27;20339;-78
2023/07/21 06:18:57;;;;;;;4.07;3.00;;;17.10;99.90;;;;;;4256418;27;20316;-80
2023/07/21 06:21:01;;;;;;;2.87;2.63;;;17.20;99.90;;;;;;4254044;27;20212;-79
2023/07/21 06:23:03;;;;;;;3.37;2.50;;;17.30;99.90;;;;;;4247882;27;20211;-78
2023/07/21 06:25:05;;;;;;;3.03;2.73;;;17.40;99.90;;;;;;4246365;27;20292;-78
2023/07/21 06:27:08;;;;;;;3.67;2.67;;;17.40;99.90;;;;;;4240070;27;20221;-77
2023/07/21 06:29:09;;;;;;;3.10;2.40;;;17.60;99.90;;;;;;4254124;27;20237;-80
2023/07/21 06:31:11;;;;;;;5.20;3.07;;;17.70;99.90;;;;;;4248530;27;20829;-79
2023/07/21 06:33:13;;;;;;;2.47;2.17;;;17.70;99.90;;;;;;4252962;27;20210;-78
2023/07/21 06:35:15;;;;;;;3.10;2.50;;;17.80;99.90;;;;;;4250128;27;20206;-78
2023/07/21 06:37:18;;;;;;;3.20;2.43;;;17.90;99.90;;;;;;4250546;27;20234;-79
2023/07/21 06:39:22;;;;;;;4.10;2.83;;;17.90;99.90;;;;;;4253521;27;20662;-81
2023/07/21 06:41:24;;;;;;;3.10;2.37;;;18.00;99.90;;;;;;4255648;27;20205;-78
2023/07/21 06:43:26;;;;;;;3.07;2.57;;;18.00;99.90;;;;;;4251136;27;20213;-78
2023/07/21 06:45:28;;;;;;;3.80;2.60;;;18.00;99.90;;;;;;4256329;27;20235;-79
2023/07/21 06:47:29;;;;;;;2.70;2.50;;;18.10;99.90;;;;;;4257306;27;20248;-78
2023/07/21 06:49:31;;;;;;;3.40;2.70;;;18.10;99.90;;;;;;4251948;27;21049;-80
2023/07/21 06:51:33;;;;;;;4.67;2.40;;;18.10;99.90;;;;;;4251538;27;20258;-81
2023/07/21 06:53:36;;;;;;;2.50;2.30;;;18.20;99.90;;;;;;4251197;27;20207;-80
2023/07/21 06:55:39;;;;;;;5.17;2.70;;;18.20;99.90;;;;;;4248807;27;20216;-80
2023/07/21 06:57:40;;;;;;;3.50;2.67;;;18.30;99.90;;;;;;4255052;27;20239;-79
2023/07/21 06:59:42;;;;;;;3.10;2.80;;;18.30;99.90;;;;;;4248445;27;20199;-80
2023/07/21 07:01:44;;;;;;;2.83;2.50;;;18.40;99.90;;;;;;4245808;27;20202;-80
2023/07/21 07:03:46;;;;;;;4.60;2.50;;;18.50;99.90;;;;;;4256670;27;20221;-79
2023/07/21 07:05:48;;;;;;;2.90;2.57;;;18.50;99.90;;;;;;4246647;27;20263;-79
2023/07/21 07:07:52;;;;;;;3.93;2.60;;;18.60;99.90;;;;;;4254950;27;20738;-79
2023/07/21 07:09:55;;;;;;;4.67;2.70;;;18.60;99.90;;;;;;4249609;27;20226;-79
2023/07/21 07:11:57;;;;;;;5.70;2.70;;;18.70;99.90;;;;;;4247006;27;20204;-79
2023/07/21 07:13:59;;;;;;;4.93;2.63;;;18.70;99.90;;;;;;4246803;27;20213;-80
2023/07/21 07:16:01;;;;;;;3.60;2.50;;;18.80;99.90;;;;;;4251181;27;20230;-80
2023/07/21 07:18:04;;;;;;;6.87;3.87;;;18.80;99.90;;;;;;4251198;27;20725;-79
2023/07/21 07:20:09;;;;;;;3.27;2.80;;;18.90;99.90;;;;;;4255440;27;20211;-80
2023/07/21 07:22:12;;;;;;;5.27;2.97;;;18.90;99.90;;;;;;4250302;27;20214;-79
2023/07/21 07:24:14;;;;;;;2.90;2.60;;;18.90;99.90;;;;;;4251134;27;20210;-79
2023/07/21 07:26:18;;;;;;;2.80;2.57;;;19.00;99.90;;;;;;4250533;27;20234;-80
2023/07/21 07:28:21;;;;;;;4.37;2.60;;;19.00;99.90;;;;;;4250472;27;20207;-79
2023/07/21 07:30:23;;;;;;;3.13;2.50;;;19.00;99.90;;;;;;4252827;27;20218;-79
2023/07/21 07:32:25;;;;;;;3.00;2.60;;;19.10;99.90;;;;;;4248846;28;20218;-79
2023/07/21 07:34:27;;;;;;;3.57;2.47;;;19.20;99.90;;;;;;4255775;27;20751;-77
2023/07/21 07:36:29;;;;;;;3.20;2.30;;;19.20;99.90;;;;;;4252316;27;20699;-79
2023/07/21 07:38:32;;;;;;;2.43;2.23;;;19.30;99.90;;;;;;4251242;27;20227;-79
2023/07/21 07:40:34;;;;;;;6.47;2.67;;;19.30;99.90;;;;;;4250234;27;20227;-79
2023/07/21 07:42:37;;;;;;;2.87;2.43;;;19.40;99.90;;;;;;4258060;27;20230;-80
2023/07/21 07:44:39;;;;;;;4.73;2.77;;;19.40;99.90;;;;;;4253925;27;20234;-80
2023/07/21 07:46:42;;;;;;;3.60;2.60;;;19.40;99.90;;;;;;4251611;27;20223;-80
2023/07/21 07:48:47;;;;;;;3.30;2.50;;;19.40;99.90;;;;;;4253135;27;20212;-78
2023/07/21 07:50:51;;;;;;;3.40;2.70;;;19.40;99.90;;;;;;4257166;27;20225;-79
2023/07/21 07:52:53;;;;;;;4.07;2.87;;;19.30;99.90;;;;;;4254529;27;20435;-79
2023/07/21 07:54:55;;;;;;;3.93;2.60;;;19.20;99.90;;;;;;4255811;27;20211;-77
2023/07/21 07:56:57;;;;;;;5.00;2.60;;;19.20;99.90;;;;;;4259658;27;20227;-80
2023/07/21 07:59:00;;;;;;;5.10;2.90;;;19.10;99.90;;;;;;4258215;27;20290;-79
2023/07/21 08:01:03;;;;;;;4.53;3.30;;;19.00;99.90;;;;;;4261159;27;20623;-77
2023/07/21 08:03:06;;;;;;;11.50;4.37;;;18.90;99.90;;;;;;4254264;27;20586;-79
2023/07/21 08:05:09;;;;;;;4.53;3.80;;;18.70;99.90;;;;;;4252762;27;20301;-81
2023/07/21 08:07:11;;;;;;;4.70;3.23;;;18.40;99.90;;;;;;4250744;27;20227;-81
2023/07/21 08:09:13;;;;;;;5.57;3.57;;;18.10;99.90;;;;;;4234068;28;20314;-81
2023/07/21 08:11:15;;;;;;;4.80;3.47;;;17.90;99.90;;;;;;4250733;27;20205;-80
2023/07/21 08:13:16;;;;;;;6.27;3.57;;;17.70;99.90;;;;;;4248065;27;20267;-81
2023/07/21 08:15:19;;;;;;;4.77;3.47;;;17.50;99.90;;;;;;4247006;27;20210;-80
2023/07/21 08:17:21;;;;;;;6.70;3.97;;;17.40;99.90;;;;;;4247906;27;20229;-81
2023/07/21 08:19:23;;;;;;;7.20;3.90;;;17.20;99.90;;;;;;4250444;27;20260;-80
2023/07/21 08:21:27;;;;;;;7.87;4.90;;;17.20;99.90;;;;;;4250066;27;20238;-80
2023/07/21 08:23:29;;;;;;;9.40;4.47;;;17.10;99.90;;;;;;4247799;27;20260;-80
2023/07/21 08:25:31;;;;;;;6.70;4.37;;;17.00;99.90;;;;;;4252917;27;20262;-81
2023/07/21 08:27:34;;;;;;;5.80;4.30;;;16.90;99.90;;;;;;4254496;27;20281;-81
2023/07/21 08:29:37;;;;;;;10.67;4.77;;;16.90;99.90;;;;;;4251058;27;20225;-81
2023/07/21 08:31:40;;;;;;;8.33;5.43;;;16.90;99.90;;;;;;4249610;27;20204;-80
2023/07/21 08:33:42;;;;;;;5.33;4.27;;;17.00;99.90;;;;;;4248662;27;20237;-80
2023/07/21 08:35:44;;;;;;;7.03;5.43;;;17.10;99.90;;;;;;4246971;27;20204;-81
2023/07/21 08:37:46;;;;;;;7.03;4.70;;;17.10;99.90;;;;;;4256177;27;20614;-81
2023/07/21 08:39:48;;;;;;;8.17;4.33;;;17.10;99.90;;;;;;4248437;27;20315;-80
2023/07/21 08:41:51;;;;;;;7.83;4.83;;;17.10;99.90;;;;;;4252534;27;20661;-80
2023/07/21 08:43:54;;;;;;;6.53;4.67;;;17.30;99.90;;;;;;4254739;27;20679;-81
2023/07/21 08:45:59;;;;;;;6.07;3.83;;;17.40;99.90;;;;;;4250085;27;20216;-79
2023/07/21 08:48:06;;;;;;;5.83;4.00;;;17.40;99.90;;;;;;4249530;27;20216;-81
2023/07/21 08:50:09;;;;;;;6.27;4.60;;;17.60;99.90;;;;;;4249204;27;20572;-79
2023/07/21 08:52:11;;;;;;;7.00;4.90;;;17.60;99.90;;;;;;4250709;27;20651;-80
2023/07/21 08:54:13;;;;;;;4.67;3.93;;;17.70;99.90;;;;;;4253077;27;20292;-79
2023/07/21 08:56:15;;;;;;;6.80;4.23;;;17.70;99.90;;;;;;4253556;27;20311;-80
2023/07/21 08:58:17;;;;;;;5.23;3.80;;;17.70;99.90;;;;;;4254302;27;20223;-80
2023/07/21 09:00:21;;;;;;;7.00;4.37;;;17.70;99.90;;;;;;4252215;27;20205;-82
2023/07/21 09:02:38;;;;;;;5.93;4.10;;;17.70;99.90;;;;;;4254847;27;20209;-82
2023/07/21 09:04:44;;;;;;;4.20;3.20;;;17.70;99.90;;;;;;4249876;27;20197;-81
2023/07/21 09:06:50;;;;;;;5.27;4.00;;;17.70;99.90;;;;;;4251834;27;20225;-82
2023/07/21 09:08:54;;;;;;;5.17;3.80;;;17.80;99.90;;;;;;4246494;27;20239;-81
2023/07/21 09:11:00;;;;;;;7.80;4.10;;;17.80;99.90;;;;;;4253630;27;20231;-82
2023/07/21 09:13:02;;;;;;;5.10;3.60;;;17.80;99.90;;;;;;4253457;27;20220;-82
2023/07/21 09:15:09;;;;;;;4.83;3.50;;;17.80;99.90;;;;;;4255993;27;20202;-81
2023/07/21 09:17:13;;;;;;;6.23;4.00;;;17.80;99.90;;;;;;4257696;27;20237;-81
2023/07/21 09:19:20;;;;;;;6.77;4.30;;;17.90;99.90;;;;;;4257857;27;20231;-79
2023/07/21 09:21:24;;;;;;;9.27;5.80;;;18.00;99.90;;;;;;4267378;27;20615;-81
2023/07/21 09:23:29;;;;;;;7.63;5.03;;;18.00;99.90;;;;;;4263000;27;20428;-80
2023/07/21 09:25:31;;;;;;;7.73;5.47;;;18.10;99.90;;;;;;4268779;27;20216;-78
2023/07/21 09:27:35;;;;;;;6.67;4.00;;;18.20;99.90;;;;;;4266193;27;20227;-78
2023/07/21 09:29:37;;;;;;;4.07;3.10;;;18.30;99.90;;;;;;4263842;27;20207;-79
2023/07/21 09:31:41;;;;;;;3.90;3.13;;;18.30;99.90;;;;;;4254841;27;20313;-82
2023/07/21 09:33:44;;;;;;;3.73;2.60;;;18.50;99.90;;;;;;4254274;27;20237;-80
2023/07/21 09:35:47;;;;;;;5.00;2.83;;;18.60;99.90;;;;;;4251413;27;20200;-83
2023/07/21 09:37:52;;;;;;;4.30;2.90;;;18.80;99.90;;;;;;4247778;27;20242;-81
2023/07/21 09:39:56;;;;;;;6.93;3.00;;;19.00;99.90;;;;;;4251025;27;20219;-80
2023/07/21 09:41:58;;;;;;;3.90;3.03;;;19.20;99.90;;;;;;4250865;27;20206;-81
2023/07/21 09:44:01;;;;;;;5.03;2.80;;;19.30;99.90;;;;;;4248773;27;20269;-81
2023/07/21 09:46:06;;;;;;;6.20;3.07;;;19.50;99.90;;;;;;4254855;27;20258;-82
2023/07/21 09:48:11;;;;;;;5.30;3.40;;;19.60;99.90;;;;;;4249761;27;20304;-82
2023/07/21 09:50:13;;;;;;;3.97;3.33;;;19.70;99.90;;;;;;4249192;27;20207;-82
2023/07/21 09:52:16;;;;;;;5.77;3.20;;;19.80;99.90;;;;;;4256488;27;20683;-81
2023/07/21 09:54:26;;;;;;;3.97;2.80;;;19.80;99.90;;;;;;4249298;27;20200;-81
2023/07/21 09:56:31;;;;;;;3.63;2.80;;;19.80;99.90;;;;;;4249897;27;20229;-79
2023/07/21 09:58:36;;;;;;;4.80;2.63;;;19.90;99.90;;;;;;4255526;27;20229;-81
2023/07/21 10:00:41;;;;;;;4.77;3.23;;;19.80;99.90;;;;;;4247861;27;20242;-82
2023/07/21 10:02:42;;;;;;;3.67;2.63;;;19.90;99.90;;;;;;4252235;27;20207;-81
2023/07/21 10:04:44;;;;;;;2.67;2.20;;;19.90;99.90;;;;;;4247372;27;20196;-81
2023/07/21 10:06:46;;;;;;;3.10;2.50;;;19.90;99.90;;;;;;4246875;27;20232;-81
2023/07/21 10:08:50;;;;;;;3.07;2.20;;;19.90;99.90;;;;;;4250452;27;20208;-80
2023/07/21 10:10:54;;;;;;;3.63;2.47;;;20.00;99.90;;;;;;4251856;27;20235;-82
2023/07/21 10:12:56;;;;;;;3.53;2.60;;;20.00;99.90;;;;;;4247645;27;20204;-81
2023/07/21 10:14:58;;;;;;;4.00;2.60;;;20.00;99.90;;;;;;4245071;27;20295;-82
2023/07/21 10:17:00;;;;;;;4.83;2.73;;;20.00;99.90;;;;;;4249722;27;20235;-81
2023/07/21 10:19:07;;;;;;;4.67;2.80;;;20.00;99.90;;;;;;4250600;27;20223;-82
2023/07/21 10:21:11;;;;;;;4.10;3.10;;;20.00;99.90;;;;;;4250086;27;20243;-81
2023/07/21 10:23:13;;;;;;;5.03;2.70;;;19.90;99.90;;;;;;4250777;27;20256;-82
2023/07/21 10:25:23;;;;;;;4.57;2.90;;;19.80;99.90;;;;;;4253659;27;20223;-81
2023/07/21 10:27:28;;;;;;;5.57;3.20;;;19.80;99.90;;;;;;4257653;27;20330;-79
2023/07/21 10:29:30;;;;;;;4.70;2.53;;;19.60;99.90;;;;;;4252076;27;20227;-81
2023/07/21 10:31:36;;;;;;;4.53;3.20;;;19.60;99.90;;;;;;4261108;27;20218;-79
2023/07/21 10:33:38;;;;;;;4.47;3.10;;;19.50;99.90;;;;;;4264343;27;20286;-78
2023/07/21 10:35:40;;;;;;;3.60;2.77;;;19.40;99.90;;;;;;4263301;27;20298;-79
2023/07/21 10:37:42;;;;;;;4.80;2.97;;;19.30;99.90;;;;;;4256138;27;20203;-81
2023/07/21 10:39:54;;;;;;;4.50;3.03;;;19.20;99.90;;;;;;4251032;27;20245;-82